Time;durP1;ratioP1;P1;durP2;ratioP2;P2;SDS_P1;SDS_P2;PMS_P1;PMS_P2;Temp;Humidity;BMP_temperature;BMP_pressure;BME280_temperature;BME280_humidity;BME280_pressure;Samples;Min_cycle;Max_cycle;Signal;HPM_P1;HPM_P2
2022/10/04 00:02:13;;;;;;;2.70;2.50;;;;;;;;;;4916659;29;20047;-80
2022/10/04 00:04:42;;;;;;;2.05;1.95;;;;;;;;;;4934267;29;20064;-82
2022/10/04 00:07:08;;;;;;;3.13;2.83;;;;;;;;;;4934553;29;20051;-81
2022/10/04 00:09:54;;;;;;;2.35;2.25;;;;;;;;;;4934469;29;20044;-81
2022/10/04 00:12:20;;;;;;;2.25;2.15;;;;;;;;;;4934973;29;20040;-81
2022/10/04 00:14:46;;;;;;;2.75;2.55;;;;;;;;;;4935453;29;20051;-83
2022/10/04 00:17:13;;;;;;;2.78;2.58;;;;;;;;;;4917217;29;20054;-80
2022/10/04 00:19:41;;;;;;;2.22;2.13;;;;;;;;;;4902940;29;20040;-84
2022/10/04 00:22:09;;;;;;;2.92;2.45;;;;;;;;;;4933761;29;20516;-80
2022/10/04 00:24:35;;;;;;;2.42;2.22;;;;;;;;;;4917065;29;20465;-82
2022/10/04 00:27:10;;;;;;;3.20;2.45;;;;;;;;;;4935814;29;20110;-83
2022/10/04 00:29:37;;;;;;;2.92;2.72;;;;;;;;;;4918522;29;20048;-82
2022/10/04 00:32:09;;;;;;;3.17;2.92;;;;;;;;;;4918695;29;20408;-81
2022/10/04 00:34:46;;;;;;;2.95;2.75;;;;;;;;;;4919830;29;20051;-81
2022/10/04 00:37:15;;;;;;;3.60;3.40;;;;;;;;;;4929792;29;20035;-81
2022/10/04 00:39:42;;;;;;;7.13;3.33;;;;;;;;;;4940775;29;20073;-81
2022/10/04 00:42:26;;;;;;;3.65;3.40;;;;;;;;;;4911480;29;20050;-83
2022/10/04 00:44:52;;;;;;;2.88;2.78;;;;;;;;;;4947329;29;20056;-81
2022/10/04 00:47:30;;;;;;;5.78;3.20;;;;;;;;;;4946880;29;20046;-81
2022/10/04 00:50:09;;;;;;;2.95;2.75;;;;;;;;;;4925594;29;20040;-80
2022/10/04 00:52:36;;;;;;;3.53;3.22;;;;;;;;;;4917355;29;20073;-81
2022/10/04 00:55:04;;;;;;;2.95;2.75;;;;;;;;;;4917025;29;20070;-81
2022/10/04 00:57:31;;;;;;;3.17;2.80;;;;;;;;;;4934035;29;20355;-81
2022/10/04 00:59:59;;;;;;;3.83;2.80;;;;;;;;;;4900158;29;20052;-83
2022/10/04 01:02:52;;;;;;;3.13;2.90;;;;;;;;;;4900196;29;20106;-82
2022/10/04 01:05:26;;;;;;;4.70;2.50;;;;;;;;;;4914086;29;20543;-81
2022/10/04 01:07:56;;;;;;;3.55;3.25;;;;;;;;;;4900763;29;20051;-80
2022/10/04 01:10:32;;;;;;;3.28;2.90;;;;;;;;;;4933102;29;20079;-82
2022/10/04 01:13:13;;;;;;;3.15;2.90;;;;;;;;;;4915789;29;20083;-81
2022/10/04 01:15:52;;;;;;;3.42;2.78;;;;;;;;;;4933405;29;20036;-82
2022/10/04 01:18:19;;;;;;;2.85;2.65;;;;;;;;;;4916686;29;20058;-81
2022/10/04 01:20:53;;;;;;;3.53;2.72;;;;;;;;;;4933272;29;20675;-81
2022/10/04 01:23:37;;;;;;;2.78;2.55;;;;;;;;;;4932598;29;20130;-81
2022/10/04 01:26:04;;;;;;;3.17;2.95;;;;;;;;;;4932272;29;20043;-80
2022/10/04 01:28:31;;;;;;;2.42;2.28;;;;;;;;;;4932662;29;20067;-81
2022/10/04 01:30:57;;;;;;;2.30;2.20;;;;;;;;;;4915631;29;20043;-81
2022/10/04 01:33:24;;;;;;;2.30;2.20;;;;;;;;;;4915001;29;20114;-80
2022/10/04 01:35:49;;;;;;;3.00;2.67;;;;;;;;;;4932207;29;20047;-81
2022/10/04 01:38:16;;;;;;;2.85;2.47;;;;;;;;;;4931691;29;20040;-80
2022/10/04 01:40:45;;;;;;;2.50;2.40;;;;;;;;;;4932092;29;20071;-80
2022/10/04 01:43:13;;;;;;;2.80;2.60;;;;;;;;;;4931813;29;20035;-81
2022/10/04 01:45:43;;;;;;;6.05;2.20;;;;;;;;;;4914885;29;20047;-81
2022/10/04 01:48:10;;;;;;;2.30;2.20;;;;;;;;;;4931717;29;20047;-80
2022/10/04 01:50:59;;;;;;;3.03;2.40;;;;;;;;;;4932180;29;20163;-79
2022/10/04 01:53:28;;;;;;;2.60;2.30;;;;;;;;;;4921415;29;20118;-80
2022/10/04 01:55:55;;;;;;;2.72;2.40;;;;;;;;;;4931802;29;20071;-79
2022/10/04 01:58:22;;;;;;;2.30;2.20;;;;;;;;;;4914689;29;20526;-82
2022/10/04 02:00:59;;;;;;;2.22;2.13;;;;;;;;;;4932182;29;20131;-81
2022/10/04 02:03:29;;;;;;;2.53;2.22;;;;;;;;;;4914775;29;20509;-82
2022/10/04 02:05:56;;;;;;;4.43;2.93;;;;;;;;;;4932517;29;20055;-81
2022/10/04 02:08:26;;;;;;;2.88;2.67;;;;;;;;;;4931740;29;21235;-82
2022/10/04 02:10:53;;;;;;;4.50;2.10;;;;;;;;;;4931875;29;20048;-80
2022/10/04 02:13:20;;;;;;;2.67;2.58;;;;;;;;;;4899062;29;20040;-81
2022/10/04 02:15:46;;;;;;;2.58;2.38;;;;;;;;;;4932814;29;20083;-82
2022/10/04 02:18:19;;;;;;;2.95;2.75;;;;;;;;;;4886046;29;20552;-81
2022/10/04 02:20:45;;;;;;;3.33;3.08;;;;;;;;;;4916405;29;20048;-81
2022/10/04 02:23:11;;;;;;;3.00;2.30;;;;;;;;;;4917326;29;20047;-81
2022/10/04 02:25:37;;;;;;;3.13;2.92;;;;;;;;;;4916710;29;20052;-81
2022/10/04 02:28:03;;;;;;;2.70;2.58;;;;;;;;;;4915067;29;20047;-82
2022/10/04 02:30:36;;;;;;;3.05;2.75;;;;;;;;;;4899583;29;20056;-80
2022/10/04 02:33:02;;;;;;;2.85;2.47;;;;;;;;;;4915022;29;20044;-81
2022/10/04 02:35:35;;;;;;;2.65;2.53;;;;;;;;;;4916950;29;20059;-82
2022/10/04 02:38:03;;;;;;;2.70;2.50;;;;;;;;;;4918801;29;20036;-79
2022/10/04 02:40:30;;;;;;;3.05;2.67;;;;;;;;;;4917021;29;20036;-81
2022/10/04 02:42:59;;;;;;;4.22;3.10;;;;;;;;;;4914894;29;20067;-80
2022/10/04 02:45:30;;;;;;;3.22;2.95;;;;;;;;;;4916262;29;20559;-80
2022/10/04 02:47:59;;;;;;;3.88;3.00;;;;;;;;;;4916332;29;20107;-79
2022/10/04 02:50:35;;;;;;;4.10;2.83;;;;;;;;;;4916151;29;20062;-81
2022/10/04 02:53:21;;;;;;;4.07;2.88;;;;;;;;;;4914974;29;20051;-81
2022/10/04 02:55:47;;;;;;;3.33;3.03;;;;;;;;;;4917981;29;20123;-81
2022/10/04 02:58:14;;;;;;;2.38;2.20;;;;;;;;;;4916794;29;20099;-79
2022/10/04 03:00:50;;;;;;;3.90;3.53;;;;;;;;;;4914883;29;20481;-80
2022/10/04 03:03:18;;;;;;;2.90;2.70;;;;;;;;;;4915778;29;20052;-79
2022/10/04 03:05:45;;;;;;;3.00;2.80;;;;;;;;;;4901278;29;20059;-82
2022/10/04 03:08:11;;;;;;;4.25;3.28;;;;;;;;;;4954548;28;20065;-81
2022/10/04 03:10:37;;;;;;;3.30;2.90;;;;;;;;;;4951955;28;20043;-79
2022/10/04 03:13:03;;;;;;;2.97;2.78;;;;;;;;;;4921803;29;20099;-79
2022/10/04 03:15:29;;;;;;;4.78;2.55;;;;;;;;;;4934951;29;20086;-79
2022/10/04 03:17:55;;;;;;;3.03;2.65;;;;;;;;;;4917426;29;20078;-80
2022/10/04 03:20:21;;;;;;;3.42;3.22;;;;;;;;;;4917575;29;20051;-79
2022/10/04 03:22:48;;;;;;;4.32;3.20;;;;;;;;;;4917460;29;20044;-82
2022/10/04 03:25:16;;;;;;;3.00;2.80;;;;;;;;;;4918160;29;20634;-80
2022/10/04 03:27:41;;;;;;;3.33;2.88;;;;;;;;;;4913334;29;20054;-81
2022/10/04 03:30:11;;;;;;;2.70;2.50;;;;;;;;;;4915032;29;20056;-80
2022/10/04 03:32:38;;;;;;;3.47;3.17;;;;;;;;;;4917601;29;20427;-80
2022/10/04 03:35:06;;;;;;;4.55;3.28;;;;;;;;;;4902155;29;20047;-81
2022/10/04 03:37:35;;;;;;;4.00;3.33;;;;;;;;;;4902533;29;20035;-82
2022/10/04 03:40:01;;;;;;;3.15;2.70;;;;;;;;;;4936273;29;20048;-82
2022/10/04 03:42:29;;;;;;;4.00;3.25;;;;;;;;;;4935932;29;20055;-82
2022/10/04 03:44:56;;;;;;;3.80;3.20;;;;;;;;;;4935930;29;20054;-81
2022/10/04 03:47:35;;;;;;;2.80;2.70;;;;;;;;;;4917981;29;20045;-80
2022/10/04 03:50:15;;;;;;;4.55;3.17;;;;;;;;;;4936585;29;20066;-82
2022/10/04 03:52:43;;;;;;;2.70;2.50;;;;;;;;;;4938424;29;20098;-81
2022/10/04 03:55:09;;;;;;;4.47;3.47;;;;;;;;;;4922025;29;20039;-81
2022/10/04 03:57:36;;;;;;;7.93;2.88;;;;;;;;;;4922420;29;20158;-80
2022/10/04 04:00:03;;;;;;;6.55;3.53;;;;;;;;;;4942670;29;20039;-83
2022/10/04 04:02:38;;;;;;;2.72;2.53;;;;;;;;;;4945193;29;20083;-83
2022/10/04 04:05:23;;;;;;;4.00;3.47;;;;;;;;;;4948078;29;20135;-82
2022/10/04 04:08:00;;;;;;;3.00;2.80;;;;;;;;;;4930150;29;20068;-83
2022/10/04 04:10:27;;;;;;;5.15;3.15;;;;;;;;;;4926775;29;20066;-82
2022/10/04 04:12:58;;;;;;;7.30;3.25;;;;;;;;;;4943113;29;20070;-82
2022/10/04 04:15:27;;;;;;;8.70;4.20;;;;;;;;;;4927956;29;20616;-82
2022/10/04 04:17:52;;;;;;;4.40;3.05;;;;;;;;;;4946076;29;20094;-81
2022/10/04 04:20:24;;;;;;;3.08;2.78;;;;;;;;;;4925613;29;20103;-81
2022/10/04 04:22:53;;;;;;;3.30;3.10;;;;;;;;;;4924385;29;20044;-81
2022/10/04 04:25:22;;;;;;;4.60;3.25;;;;;;;;;;4924545;29;20047;-81
2022/10/04 04:27:49;;;;;;;3.25;3.05;;;;;;;;;;4940066;29;20118;-84
2022/10/04 04:30:15;;;;;;;2.95;2.75;;;;;;;;;;4943074;29;20050;-81
2022/10/04 04:32:43;;;;;;;3.20;2.30;;;;;;;;;;4918537;29;20067;-82
2022/10/04 04:35:22;;;;;;;4.47;3.90;;;;;;;;;;4936329;29;20052;-82
2022/10/04 04:38:11;;;;;;;3.90;3.60;;;;;;;;;;4931134;29;20047;-82
2022/10/04 04:40:37;;;;;;;3.17;2.97;;;;;;;;;;4940370;29;20047;-85
2022/10/04 04:43:03;;;;;;;3.60;3.30;;;;;;;;;;4955927;29;20050;-83
2022/10/04 04:45:29;;;;;;;3.60;3.40;;;;;;;;;;4937280;29;20047;-83
2022/10/04 04:47:58;;;;;;;3.47;3.17;;;;;;;;;;4954902;29;20072;-83
2022/10/04 04:53:11;;;;;;;3.25;3.05;;;;;;;;;;5237577;23;20107;-83
2022/10/04 04:55:39;;;;;;;5.82;3.05;;;;;;;;;;4963013;29;20043;-83
2022/10/04 04:58:08;;;;;;;8.32;3.53;;;;;;;;;;4940841;28;20059;-82
2022/10/04 05:03:20;;;;;;;3.67;3.45;;;;;;;;;;4937277;29;20047;-84
2022/10/04 05:05:46;;;;;;;5.60;3.83;;;;;;;;;;5085585;23;20106;-87
2022/10/04 05:08:18;;;;;;;7.25;2.88;;;;;;;;;;5004752;28;20050;-88
2022/10/04 05:10:54;;;;;;;2.97;2.78;;;;;;;;;;5018078;28;20102;-81
2022/10/04 05:13:21;;;;;;;3.28;2.92;;;;;;;;;;5029961;28;20497;-81
2022/10/04 05:15:47;;;;;;;3.50;3.20;;;;;;;;;;5027866;28;20034;-86
2022/10/04 13:57:54;;;;;;;1.10;1.10;;;;;;;;;;4276734;26;20089;-71
2022/10/04 14:00:38;;;;;;;1.30;1.20;;;;;;;;;;4939386;28;20069;-72
2022/10/04 14:03:14;;;;;;;1.20;1.20;;;;;;;;;;4983564;28;20031;-72
2022/10/04 14:05:39;;;;;;;2.85;1.48;;;;;;;;;;4988104;28;20080;-71
2022/10/04 14:08:24;;;;;;;2.90;1.40;;;;;;;;;;4968870;28;20050;-72
2022/10/04 14:11:06;;;;;;;1.10;1.10;;;;;;;;;;4988366;28;20054;-72
2022/10/04 14:13:42;;;;;;;2.13;1.67;;;;;;;;;;4968707;28;20062;-71
2022/10/04 14:16:11;;;;;;;1.50;1.40;;;;;;;;;;4972066;28;20528;-70
2022/10/04 14:18:46;;;;;;;1.70;1.60;;;;;;;;;;4974182;28;20459;-71
2022/10/04 14:21:30;;;;;;;1.63;1.52;;;;;;;;;;4985682;28;20098;-72
2022/10/04 14:24:15;;;;;;;1.05;1.05;;;;;;;;;;4989098;28;20069;-71
2022/10/04 14:26:59;;;;;;;3.00;1.60;;;;;;;;;;4958865;28;20133;-71
2022/10/04 14:29:45;;;;;;;3.40;1.80;;;;;;;;;;4962515;28;20724;-71
2022/10/04 14:32:34;;;;;;;2.50;2.30;;;;;;;;;;4969260;28;20046;-71
2022/10/04 14:35:20;;;;;;;2.00;1.85;;;;;;;;;;4971616;28;20045;-72
2022/10/04 14:37:52;;;;;;;1.70;1.60;;;;;;;;;;4988670;28;20644;-72
2022/10/04 14:40:37;;;;;;;1.95;1.85;;;;;;;;;;4989206;28;20140;-73
2022/10/04 14:43:16;;;;;;;1.92;1.83;;;;;;;;;;4987896;28;20038;-71
2022/10/04 14:46:01;;;;;;;1.58;1.48;;;;;;;;;;4968352;28;20082;-72
2022/10/04 14:48:30;;;;;;;1.48;1.48;;;;;;;;;;4989185;28;20050;-71
2022/10/04 14:51:02;;;;;;;1.50;1.40;;;;;;;;;;4988829;28;20057;-71
2022/10/04 14:53:36;;;;;;;2.53;1.30;;;;;;;;;;4971667;28;20057;-71
2022/10/04 14:56:05;;;;;;;1.30;1.30;;;;;;;;;;4950582;28;20026;-70
2022/10/04 14:58:31;;;;;;;1.65;1.55;;;;;;;;;;4966541;28;20066;-72
2022/10/04 15:01:02;;;;;;;1.60;1.50;;;;;;;;;;4982109;28;20081;-71
2022/10/04 15:03:48;;;;;;;1.67;1.58;;;;;;;;;;4971093;28;20092;-71
2022/10/04 15:06:32;;;;;;;2.88;2.67;;;;;;;;;;4931290;28;20059;-71
2022/10/04 15:09:17;;;;;;;1.80;1.70;;;;;;;;;;4979914;28;20049;-71
2022/10/04 15:11:46;;;;;;;1.83;1.73;;;;;;;;;;4940547;28;20046;-71
2022/10/04 15:14:21;;;;;;;2.00;1.75;;;;;;;;;;4988761;28;20057;-71
2022/10/04 15:16:58;;;;;;;1.52;1.42;;;;;;;;;;4954924;28;20034;-71
2022/10/04 15:19:25;;;;;;;1.90;1.80;;;;;;;;;;4969423;28;20081;-70
2022/10/04 15:21:54;;;;;;;2.20;2.10;;;;;;;;;;4970093;28;20045;-71
2022/10/04 15:24:27;;;;;;;1.73;1.73;;;;;;;;;;4984816;28;20085;-70
2022/10/04 15:27:02;;;;;;;2.00;1.60;;;;;;;;;;4958739;28;20054;-70
2022/10/04 15:29:30;;;;;;;2.03;1.92;;;;;;;;;;4991964;28;20050;-71
2022/10/04 15:32:15;;;;;;;1.83;1.73;;;;;;;;;;4965043;28;20164;-71
2022/10/04 15:34:43;;;;;;;2.00;1.90;;;;;;;;;;4972405;28;20047;-72
2022/10/04 15:37:13;;;;;;;1.92;1.83;;;;;;;;;;4961024;28;20034;-73
2022/10/04 15:40:09;;;;;;;1.98;1.88;;;;;;;;;;4973124;28;20046;-71
2022/10/04 15:42:36;;;;;;;2.65;2.00;;;;;;;;;;4923269;28;20047;-71
2022/10/04 15:45:17;;;;;;;1.98;1.88;;;;;;;;;;4984168;28;20039;-71
2022/10/04 15:48:01;;;;;;;1.90;1.80;;;;;;;;;;4990618;28;20046;-73
2022/10/04 15:50:27;;;;;;;1.50;1.50;;;;;;;;;;4972220;28;20050;-72
2022/10/04 15:53:09;;;;;;;1.65;1.65;;;;;;;;;;4992058;28;20104;-72
2022/10/04 15:55:35;;;;;;;3.35;2.20;;;;;;;;;;4973626;28;20049;-72
2022/10/04 15:58:08;;;;;;;2.08;1.98;;;;;;;;;;4989708;28;20452;-70
2022/10/04 16:00:46;;;;;;;3.28;2.28;;;;;;;;;;4991821;28;20049;-69
2022/10/04 16:03:12;;;;;;;1.90;1.80;;;;;;;;;;4971448;28;20518;-69
2022/10/04 16:05:56;;;;;;;1.90;1.83;;;;;;;;;;4991662;28;20125;-70
2022/10/04 16:08:22;;;;;;;2.25;2.05;;;;;;;;;;4974596;28;20197;-71
2022/10/04 16:11:07;;;;;;;2.20;2.10;;;;;;;;;;4990566;28;20104;-71
2022/10/04 16:13:45;;;;;;;3.75;2.25;;;;;;;;;;4991533;28;20047;-70
2022/10/04 16:16:14;;;;;;;2.40;2.30;;;;;;;;;;4982966;28;20038;-70
2022/10/04 16:18:40;;;;;;;2.08;1.98;;;;;;;;;;4978176;28;20038;-70
2022/10/04 16:21:15;;;;;;;2.35;2.20;;;;;;;;;;4990657;28;20057;-70
2022/10/04 16:23:44;;;;;;;2.30;2.10;;;;;;;;;;4989841;28;20125;-70
2022/10/04 16:26:12;;;;;;;2.55;2.28;;;;;;;;;;4971859;28;20058;-70
2022/10/04 16:28:43;;;;;;;1.90;1.80;;;;;;;;;;4944143;28;20125;-70
2022/10/04 16:31:16;;;;;;;1.95;1.85;;;;;;;;;;4970071;28;20057;-72
2022/10/04 16:34:01;;;;;;;1.30;1.30;;;;;;;;;;4972697;28;20042;-72
2022/10/04 16:36:45;;;;;;;1.25;1.25;;;;;;;;;;4975035;28;20035;-72
2022/10/04 16:42:00;;;;;;;2.40;1.80;;;;;;;;;;4972578;28;20054;-71
2022/10/04 16:44:28;;;;;;;1.95;1.85;;;;;;;;;;4970512;28;20061;-70
2022/10/04 16:46:54;;;;;;;1.60;1.60;;;;;;;;;;4959506;28;20652;-71
2022/10/04 16:49:24;;;;;;;1.45;1.38;;;;;;;;;;4969715;28;20042;-70
2022/10/04 16:52:03;;;;;;;1.95;1.85;;;;;;;;;;4972216;28;20411;-72
2022/10/04 16:54:34;;;;;;;1.90;1.80;;;;;;;;;;4973091;28;20043;-70
2022/10/04 16:57:01;;;;;;;1.40;1.40;;;;;;;;;;4972438;28;20050;-71
2022/10/04 16:59:41;;;;;;;1.70;1.60;;;;;;;;;;4989402;28;20043;-70
2022/10/04 17:02:10;;;;;;;1.50;1.50;;;;;;;;;;4972136;28;20181;-71
2022/10/04 17:04:37;;;;;;;1.40;1.40;;;;;;;;;;4978278;28;20100;-70
2022/10/04 17:07:12;;;;;;;1.63;1.58;;;;;;;;;;4987544;28;20111;-71
2022/10/04 17:09:57;;;;;;;3.65;1.85;;;;;;;;;;4963050;28;20069;-71
2022/10/04 17:12:34;;;;;;;1.83;1.73;;;;;;;;;;4988102;28;20384;-70
2022/10/04 17:15:19;;;;;;;2.25;2.15;;;;;;;;;;4944580;28;20034;-72
2022/10/04 17:18:09;;;;;;;2.30;2.10;;;;;;;;;;4989002;28;20121;-72
2022/10/04 17:20:41;;;;;;;2.28;2.08;;;;;;;;;;4965333;28;20128;-71
2022/10/04 17:23:12;;;;;;;1.65;1.63;;;;;;;;;;4984094;28;20078;-72
2022/10/04 17:25:49;;;;;;;6.53;1.75;;;;;;;;;;4964220;28;20495;-71
2022/10/04 17:28:15;;;;;;;1.88;1.77;;;;;;;;;;4949714;28;20140;-72
2022/10/04 17:30:44;;;;;;;2.03;1.92;;;;;;;;;;4979108;28;20459;-72
2022/10/04 17:33:29;;;;;;;1.50;1.50;;;;;;;;;;4970714;28;20113;-72
2022/10/04 17:36:19;;;;;;;1.77;1.63;;;;;;;;;;4988182;28;20045;-71
2022/10/04 17:38:57;;;;;;;1.93;1.83;;;;;;;;;;4972302;28;20037;-73
2022/10/04 17:41:35;;;;;;;3.78;1.90;;;;;;;;;;4984849;28;20278;-71
2022/10/04 17:44:01;;;;;;;2.00;1.83;;;;;;;;;;4980812;28;20069;-71
2022/10/04 17:46:29;;;;;;;1.48;1.38;;;;;;;;;;4964526;28;20507;-72
2022/10/04 17:57:29;;;;;;;3.25;2.10;;;;;;;;;;4945999;28;20050;-73
2022/10/04 18:00:09;;;;;;;1.88;1.77;;;;;;;;;;4957128;28;20125;-73
2022/10/04 18:02:53;;;;;;;2.10;2.00;;;;;;;;;;4988946;28;20057;-73
2022/10/04 18:05:29;;;;;;;1.67;1.58;;;;;;;;;;4987570;28;20078;-73
2022/10/04 18:07:56;;;;;;;2.08;1.98;;;;;;;;;;4962836;28;20055;-73
2022/10/04 18:10:26;;;;;;;1.70;1.65;;;;;;;;;;4927578;28;20050;-71
2022/10/04 18:12:55;;;;;;;1.40;1.35;;;;;;;;;;4963189;28;20038;-71
2022/10/04 18:15:25;;;;;;;2.47;2.30;;;;;;;;;;4988764;28;20050;-71
2022/10/04 18:17:51;;;;;;;2.15;1.92;;;;;;;;;;4972177;28;20045;-71
2022/10/04 18:20:31;;;;;;;1.92;1.70;;;;;;;;;;4989122;28;20046;-72
2022/10/04 18:23:01;;;;;;;2.00;1.90;;;;;;;;;;4973457;28;20112;-70
2022/10/04 18:25:31;;;;;;;1.85;1.73;;;;;;;;;;4969342;28;20525;-71
2022/10/04 18:28:05;;;;;;;1.90;1.80;;;;;;;;;;4988042;28;20418;-70
2022/10/04 18:30:52;;;;;;;2.00;1.90;;;;;;;;;;4989478;28;20046;-71
2022/10/04 18:33:19;;;;;;;2.25;2.15;;;;;;;;;;4989537;28;20145;-71
2022/10/04 18:35:53;;;;;;;2.33;2.22;;;;;;;;;;4971891;28;20038;-71
2022/10/04 18:38:23;;;;;;;2.50;2.33;;;;;;;;;;4937156;28;20034;-72
2022/10/04 18:41:15;;;;;;;3.97;3.67;;;;;;;;;;4981131;28;20064;-71
2022/10/04 18:43:48;;;;;;;2.78;2.67;;;;;;;;;;4983844;28;20066;-71
2022/10/04 18:46:15;;;;;;;3.72;3.38;;;;;;;;;;4955800;28;20054;-70
2022/10/04 18:48:41;;;;;;;2.55;2.35;;;;;;;;;;4989505;28;20034;-72
2022/10/04 18:51:25;;;;;;;2.20;2.10;;;;;;;;;;4988782;28;20104;-71
2022/10/04 18:54:10;;;;;;;4.65;2.42;;;;;;;;;;4949530;28;20090;-71
2022/10/04 18:56:43;;;;;;;3.03;1.95;;;;;;;;;;4951658;28;20067;-70
2022/10/04 19:02:01;;;;;;;2.90;2.70;;;;;;;;;;4965208;28;20133;-71
2022/10/04 19:04:27;;;;;;;6.68;2.53;;;;;;;;;;4987147;28;20081;-70
2022/10/04 19:06:53;;;;;;;5.45;4.78;;;;;;;;;;4973751;28;20066;-72
2022/10/04 19:09:22;;;;;;;6.85;3.20;;;;;;;;;;4966355;28;20057;-71
2022/10/04 19:11:50;;;;;;;2.72;2.53;;;;;;;;;;4990861;28;20052;-71
2022/10/04 19:14:35;;;;;;;3.35;2.60;;;;;;;;;;4950187;28;20054;-71
2022/10/04 19:17:10;;;;;;;2.30;2.20;;;;;;;;;;4972912;28;20046;-71
2022/10/04 19:19:54;;;;;;;2.50;2.40;;;;;;;;;;4989601;28;20070;-71
2022/10/04 19:22:42;;;;;;;3.30;3.00;;;;;;;;;;4974822;28;20042;-70
2022/10/04 19:25:14;;;;;;;3.45;3.25;;;;;;;;;;4990338;28;20142;-70
2022/10/04 19:27:44;;;;;;;3.70;3.35;;;;;;;;;;4970772;28;20169;-71
2022/10/04 19:30:12;;;;;;;3.42;3.22;;;;;;;;;;4989938;28;20129;-71
2022/10/04 19:32:50;;;;;;;3.42;3.13;;;;;;;;;;4959307;28;20042;-71
2022/10/04 19:35:23;;;;;;;3.83;3.53;;;;;;;;;;4987110;28;20133;-71
2022/10/04 19:37:49;;;;;;;4.75;4.28;;;;;;;;;;4989725;28;20145;-74
2022/10/04 19:40:27;;;;;;;4.97;4.55;;;;;;;;;;4971233;28;20150;-73
2022/10/04 19:43:00;;;;;;;3.92;3.70;;;;;;;;;;4973517;28;20038;-73
2022/10/04 19:45:44;;;;;;;3.30;3.10;;;;;;;;;;4975149;28;20057;-73
2022/10/04 19:48:18;;;;;;;3.90;3.30;;;;;;;;;;4953428;28;20069;-72
2022/10/04 19:50:48;;;;;;;3.30;3.10;;;;;;;;;;4953116;28;20150;-71
2022/10/04 19:53:18;;;;;;;3.70;2.83;;;;;;;;;;4966808;28;20100;-70
2022/10/04 19:55:56;;;;;;;2.65;2.45;;;;;;;;;;4990472;28;20073;-71
2022/10/04 19:58:38;;;;;;;2.20;2.00;;;;;;;;;;4991899;28;20125;-71
2022/10/04 20:01:09;;;;;;;3.08;2.05;;;;;;;;;;4953767;28;20834;-70
2022/10/04 20:03:34;;;;;;;2.20;2.10;;;;;;;;;;4992326;28;20034;-72
2022/10/04 20:06:02;;;;;;;3.25;2.55;;;;;;;;;;4974743;28;20057;-71
2022/10/04 20:08:48;;;;;;;3.05;2.83;;;;;;;;;;4953670;28;20030;-70
2022/10/04 20:11:15;;;;;;;3.22;2.45;;;;;;;;;;4989311;28;20049;-71
2022/10/04 20:13:41;;;;;;;2.67;2.58;;;;;;;;;;4973274;28;20065;-69
2022/10/04 20:16:07;;;;;;;2.58;2.38;;;;;;;;;;4962223;28;20050;-71
2022/10/04 20:18:40;;;;;;;2.40;2.20;;;;;;;;;;4973984;28;20061;-71
2022/10/04 20:21:11;;;;;;;2.33;2.22;;;;;;;;;;4992324;28;20049;-72
2022/10/04 20:23:37;;;;;;;7.60;2.28;;;;;;;;;;4989289;28;20097;-70
2022/10/04 20:26:09;;;;;;;2.40;2.22;;;;;;;;;;4990957;28;20042;-71
2022/10/04 20:28:38;;;;;;;2.13;2.03;;;;;;;;;;4973976;28;20434;-70
2022/10/04 20:31:05;;;;;;;2.30;2.20;;;;;;;;;;4991015;28;20522;-71
2022/10/04 20:33:36;;;;;;;2.90;2.80;;;;;;;;;;4992698;28;20046;-85
2022/10/04 20:36:05;;;;;;;2.97;2.53;;;;;;;;;;4991652;28;20042;-84
2022/10/04 20:38:54;;;;;;;2.53;2.33;;;;;;;;;;5009007;28;20124;-84
2022/10/04 20:44:33;;;;;;;2.88;2.45;;;;;;;;;;4975833;28;20046;-83
2022/10/04 20:47:00;;;;;;;2.10;2.00;;;;;;;;;;5001657;28;20061;-82
2022/10/04 20:49:26;;;;;;;3.40;2.53;;;;;;;;;;4999564;28;20049;-82
2022/10/04 20:51:52;;;;;;;2.50;2.30;;;;;;;;;;4981836;28;20125;-82
2022/10/04 20:54:19;;;;;;;2.40;2.20;;;;;;;;;;4969815;28;20042;-83
2022/10/04 20:56:45;;;;;;;1.95;1.85;;;;;;;;;;4969395;28;20208;-84
2022/10/04 20:59:11;;;;;;;2.35;2.25;;;;;;;;;;5005588;28;20501;-83
2022/10/04 21:01:45;;;;;;;2.58;2.38;;;;;;;;;;4973030;28;20046;-84
2022/10/04 21:04:11;;;;;;;2.30;2.20;;;;;;;;;;5005683;28;20038;-84
2022/10/04 21:06:51;;;;;;;2.50;2.35;;;;;;;;;;5005024;28;20061;-84
2022/10/04 21:09:17;;;;;;;2.55;2.35;;;;;;;;;;4987841;28;20647;-81
2022/10/04 21:11:43;;;;;;;3.67;2.45;;;;;;;;;;4989314;28;20046;-83
2022/10/04 21:14:20;;;;;;;2.80;2.60;;;;;;;;;;4972787;28;20045;-84
2022/10/04 21:16:48;;;;;;;3.53;2.60;;;;;;;;;;4958013;28;20069;-83
2022/10/04 21:19:32;;;;;;;2.60;2.45;;;;;;;;;;4990913;28;20042;-84
2022/10/04 21:21:59;;;;;;;2.10;2.00;;;;;;;;;;4987660;28;20034;-81
2022/10/04 21:24:26;;;;;;;2.88;2.20;;;;;;;;;;4981329;28;20110;-82
2022/10/04 21:26:58;;;;;;;2.53;2.10;;;;;;;;;;4981679;28;20081;-83
2022/10/04 21:29:24;;;;;;;2.03;1.92;;;;;;;;;;5011591;28;20106;-87
2022/10/04 21:31:50;;;;;;;5.45;1.90;;;;;;;;;;4984065;28;20049;-88
2022/10/04 21:34:16;;;;;;;2.80;2.70;;;;;;;;;;4999219;28;20073;-86
2022/10/04 21:36:42;;;;;;;2.10;2.00;;;;;;;;;;4998407;28;20042;-85
2022/10/04 21:39:07;;;;;;;6.55;2.30;;;;;;;;;;5014076;28;20106;-86
2022/10/04 21:41:33;;;;;;;2.45;2.15;;;;;;;;;;4995014;28;20061;-84
2022/10/04 21:43:59;;;;;;;2.00;1.90;;;;;;;;;;5010314;28;20034;-82
2022/10/04 21:46:25;;;;;;;2.33;2.22;;;;;;;;;;5011183;28;20062;-84
2022/10/04 21:48:51;;;;;;;6.25;2.08;;;;;;;;;;5008061;28;20446;-85
2022/10/04 21:51:17;;;;;;;2.00;1.90;;;;;;;;;;4989893;28;20466;-84
2022/10/04 21:53:43;;;;;;;2.67;2.47;;;;;;;;;;5010446;28;20010;-83
2022/10/04 21:56:09;;;;;;;2.28;2.17;;;;;;;;;;5009838;28;20042;-84
2022/10/04 21:58:35;;;;;;;2.30;2.10;;;;;;;;;;5012209;28;20065;-84
2022/10/04 22:01:01;;;;;;;1.77;1.67;;;;;;;;;;5013013;28;20125;-85
2022/10/04 22:03:27;;;;;;;2.25;2.15;;;;;;;;;;4979642;28;20074;-85
2022/10/04 22:05:53;;;;;;;2.17;1.92;;;;;;;;;;4983341;28;20026;-85
2022/10/04 22:08:19;;;;;;;3.03;1.80;;;;;;;;;;5015277;28;20046;-85
2022/10/04 22:10:46;;;;;;;2.00;1.90;;;;;;;;;;5015717;28;20123;-85
2022/10/04 22:13:12;;;;;;;3.97;1.80;;;;;;;;;;5015857;28;20061;-85
2022/10/04 22:15:37;;;;;;;1.90;1.80;;;;;;;;;;5014999;28;20038;-85
2022/10/04 22:18:03;;;;;;;2.30;2.20;;;;;;;;;;5017074;28;20023;-85
2022/10/04 22:20:29;;;;;;;2.03;1.92;;;;;;;;;;4990291;28;20049;-80
2022/10/04 22:22:56;;;;;;;2.20;2.10;;;;;;;;;;4959881;28;20049;-85
